createdAt,value
2022-08-30T00:01:31.280Z,10.80
2022-08-30T00:04:00.320Z,9.38
2022-08-30T00:06:29.625Z,10.07
2022-08-30T00:08:57.970Z,15.05
2022-08-30T00:11:28.817Z,43.63
2022-08-30T00:13:57.891Z,68.80
2022-08-30T00:16:26.943Z,53.40
2022-08-30T00:18:55.893Z,36.35
2022-08-30T00:21:24.409Z,21.88
2022-08-30T00:23:52.554Z,15.73
2022-08-30T00:26:20.866Z,12.35
2022-08-30T00:28:49.105Z,11.80
2022-08-30T00:31:17.456Z,14.52
2022-08-30T00:33:45.565Z,13.02
2022-08-30T00:36:13.905Z,7.45
2022-08-30T00:38:42.074Z,8.23
2022-08-30T00:41:10.326Z,9.80
2022-08-30T00:43:39.024Z,10.13
2022-08-30T00:46:07.861Z,9.15
2022-08-30T00:48:43.544Z,9.27
2022-08-30T00:51:14.880Z,10.20
2022-08-30T00:53:48.193Z,11.07
2022-08-30T00:56:16.984Z,9.13
2022-08-30T00:58:49.422Z,10.70
2022-08-30T01:01:19.084Z,10.35
2022-08-30T01:03:48.638Z,16.60
2022-08-30T01:06:18.074Z,10.35
2022-08-30T01:08:47.819Z,10.95
2022-08-30T01:11:20.979Z,11.30
2022-08-30T01:13:50.685Z,8.82
2022-08-30T01:16:19.856Z,10.00
2022-08-30T01:18:51.523Z,9.82
2022-08-30T01:21:51.420Z,9.00
2022-08-30T01:24:20.021Z,10.15
2022-08-30T01:26:48.343Z,8.82
2022-08-30T01:32:09.316Z,10.07
2022-08-30T01:34:37.487Z,9.27
2022-08-30T01:37:05.641Z,9.45
2022-08-30T01:42:59.234Z,9.95
2022-08-30T01:45:27.466Z,8.82
2022-08-30T01:47:55.576Z,10.05
2022-08-30T01:50:26.979Z,9.27
2022-08-30T01:52:55.262Z,10.02
2022-08-30T01:55:23.718Z,9.90
2022-08-30T01:57:51.955Z,8.50
2022-08-30T02:00:20.315Z,9.73
2022-08-30T02:02:48.576Z,8.32
2022-08-30T02:05:16.772Z,8.93
2022-08-30T02:07:44.981Z,7.10
2022-08-30T02:10:13.414Z,8.77
2022-08-30T02:12:42.196Z,9.48
2022-08-30T02:15:10.949Z,9.52
2022-08-30T02:17:39.412Z,7.82
2022-08-30T02:20:09.324Z,7.80
2022-08-30T02:22:38.666Z,8.93
2022-08-30T02:25:21.123Z,9.52
2022-08-30T02:27:49.889Z,8.63
2022-08-30T02:30:18.008Z,8.18
2022-08-30T02:32:46.318Z,7.90
2022-08-30T02:35:14.953Z,8.07
2022-08-30T02:37:43.150Z,8.90
2022-08-30T02:40:12.060Z,8.85
2022-08-30T02:42:40.516Z,8.73
2022-08-30T02:45:09.624Z,9.75
2022-08-30T02:47:38.075Z,7.93
2022-08-30T02:50:08.435Z,8.00
2022-08-30T02:52:37.955Z,9.05
2022-08-30T02:55:08.302Z,8.63
2022-08-30T02:57:36.544Z,7.80
2022-08-30T03:00:09.306Z,11.55
2022-08-30T03:02:37.449Z,12.85
2022-08-30T03:05:06.171Z,17.02
2022-08-30T03:07:34.863Z,17.70
2022-08-30T03:10:03.074Z,16.77
2022-08-30T03:12:31.256Z,11.68
2022-08-30T03:15:02.822Z,9.43
2022-08-30T03:17:31.144Z,9.85
2022-08-30T03:19:59.564Z,9.98
2022-08-30T03:22:27.944Z,8.50
2022-08-30T03:24:56.543Z,9.45
2022-08-30T03:27:25.101Z,9.30
2022-08-30T03:29:53.403Z,10.77
2022-08-30T03:32:22.239Z,8.65
2022-08-30T03:34:50.397Z,8.45
2022-08-30T03:37:19.271Z,9.95
2022-08-30T03:39:47.602Z,8.75
2022-08-30T03:42:16.657Z,10.05
2022-08-30T03:44:45.249Z,10.07
2022-08-30T03:47:13.579Z,12.00
2022-08-30T03:49:41.807Z,10.63
2022-08-30T03:52:10.186Z,10.43
2022-08-30T03:54:38.429Z,9.85
2022-08-30T03:57:06.991Z,10.43
2022-08-30T03:59:35.210Z,10.70
2022-08-30T04:02:03.574Z,9.32
2022-08-30T04:04:31.938Z,10.60
2022-08-30T04:07:00.271Z,9.77
2022-08-30T04:09:28.361Z,10.93
2022-08-30T04:11:56.678Z,9.45
2022-08-30T04:14:24.857Z,9.88
2022-08-30T04:16:53.349Z,10.52
2022-08-30T04:19:21.489Z,10.68
2022-08-30T04:21:49.787Z,9.93
2022-08-30T04:24:18.038Z,9.95
2022-08-30T04:26:55.405Z,9.38
2022-08-30T04:29:23.588Z,9.82
2022-08-30T04:32:00.745Z,8.43
2022-08-30T04:34:29.087Z,8.00
2022-08-30T04:36:57.382Z,9.75
2022-08-30T04:39:26.937Z,8.77
2022-08-30T04:41:55.159Z,10.15
2022-08-30T04:44:23.535Z,10.57
2022-08-30T04:46:51.821Z,11.32
2022-08-30T04:49:20.540Z,10.18
2022-08-30T04:51:49.003Z,9.32
2022-08-30T04:54:17.431Z,8.15
2022-08-30T04:56:45.611Z,8.65
2022-08-30T04:59:13.719Z,8.65
2022-08-30T05:01:45.307Z,9.57
2022-08-30T05:06:43.674Z,8.65
2022-08-30T05:09:12.540Z,8.35
2022-08-30T05:11:40.621Z,7.72
2022-08-30T05:14:08.955Z,9.13
2022-08-30T05:16:37.373Z,8.23
2022-08-30T05:19:06.359Z,7.38
2022-08-30T05:24:48.046Z,7.05
2022-08-30T05:27:16.430Z,6.90
2022-08-30T05:29:44.632Z,8.02
2022-08-30T05:32:12.870Z,5.50
2022-08-30T05:34:41.076Z,6.70
2022-08-30T05:37:09.145Z,6.82
2022-08-30T05:39:51.260Z,6.70
2022-08-30T05:42:20.637Z,7.13
2022-08-30T05:44:52.719Z,8.07
2022-08-30T05:47:21.863Z,7.03
2022-08-30T05:49:50.071Z,8.15
2022-08-30T05:52:18.778Z,7.53
2022-08-30T05:54:51.760Z,7.90
2022-08-30T05:57:20.248Z,6.80
2022-08-30T05:59:48.868Z,7.60
2022-08-30T06:02:17.349Z,8.07
2022-08-30T06:04:45.693Z,7.13
2022-08-30T06:07:15.818Z,8.18
2022-08-30T06:09:45.436Z,6.93
2022-08-30T06:12:13.669Z,7.07
2022-08-30T06:14:42.078Z,6.30
2022-08-30T06:17:10.347Z,7.07
2022-08-30T06:19:38.560Z,7.15
2022-08-30T06:22:06.789Z,6.68
2022-08-30T06:24:55.860Z,6.32
2022-08-30T06:27:23.630Z,6.68
2022-08-30T06:29:54.979Z,7.22
2022-08-30T06:32:23.313Z,6.40
2022-08-30T06:34:51.557Z,7.30
2022-08-30T06:37:29.706Z,7.50
2022-08-30T06:40:00.279Z,6.70
2022-08-30T06:42:31.019Z,6.78
2022-08-30T06:45:00.990Z,7.35
2022-08-30T06:47:30.113Z,6.10
2022-08-30T06:49:58.889Z,8.05
2022-08-30T06:52:27.747Z,7.93
2022-08-30T06:54:57.919Z,8.13
2022-08-30T06:57:26.965Z,7.45
2022-08-30T06:59:58.461Z,8.30
2022-08-30T07:02:27.417Z,9.27
2022-08-30T07:04:55.632Z,9.02
2022-08-30T07:07:23.828Z,8.25
2022-08-30T07:09:52.213Z,7.30
2022-08-30T07:12:20.711Z,8.38
2022-08-30T07:14:49.032Z,7.20
2022-08-30T07:17:17.402Z,8.45
2022-08-30T07:19:45.756Z,8.15
2022-08-30T07:22:13.898Z,7.47
2022-08-30T07:24:42.338Z,7.50
2022-08-30T07:27:10.622Z,7.00
2022-08-30T07:29:38.810Z,7.78
2022-08-30T07:32:07.704Z,7.35
2022-08-30T07:34:36.063Z,6.88
2022-08-30T07:37:04.174Z,9.30
2022-08-30T07:39:33.349Z,7.18
2022-08-30T07:42:03.047Z,7.63
2022-08-30T07:47:17.936Z,8.10
2022-08-30T07:49:46.154Z,7.47
2022-08-30T07:52:14.371Z,7.63
2022-08-30T07:54:42.730Z,6.80
2022-08-30T07:57:11.142Z,6.47
2022-08-30T07:59:39.392Z,5.32
2022-08-30T08:02:09.229Z,5.47
2022-08-30T08:04:37.501Z,5.13
2022-08-30T08:07:05.938Z,5.15
2022-08-30T08:09:34.716Z,5.32
2022-08-30T08:12:05.937Z,4.43
2022-08-30T08:14:35.311Z,5.30
2022-08-30T08:17:03.682Z,4.38
2022-08-30T08:19:32.271Z,5.40
2022-08-30T08:24:50.330Z,5.90
2022-08-30T08:30:48.507Z,5.75
2022-08-30T08:33:18.401Z,6.18
2022-08-30T08:35:47.213Z,6.75
2022-08-30T08:38:16.488Z,6.65
2022-08-30T08:41:06.414Z,7.57
2022-08-30T08:43:36.491Z,6.05
2022-08-30T08:46:28.020Z,6.05
2022-08-30T08:49:01.257Z,7.38
2022-08-30T08:51:35.157Z,5.95
2022-08-30T08:54:26.067Z,5.28
2022-08-30T08:56:54.925Z,6.90
2022-08-30T08:59:23.363Z,6.28
2022-08-30T09:01:51.734Z,5.75
2022-08-30T09:04:31.105Z,6.35
2022-08-30T09:07:04.553Z,6.28
2022-08-30T09:09:37.714Z,6.20
2022-08-30T09:12:08.221Z,6.22
2022-08-30T09:14:47.223Z,4.93
2022-08-30T09:17:17.160Z,4.97
2022-08-30T09:19:59.374Z,5.75
2022-08-30T09:22:34.976Z,5.63
2022-08-30T09:25:09.486Z,6.32
2022-08-30T09:27:39.483Z,4.32
2022-08-30T09:30:15.845Z,5.82
2022-08-30T09:32:56.747Z,5.22
2022-08-30T09:35:34.391Z,5.72
2022-08-30T09:38:18.983Z,4.28
2022-08-30T09:40:54.045Z,5.90
2022-08-30T09:43:31.046Z,5.70
2022-08-30T09:46:02.467Z,5.90
2022-08-30T09:48:41.259Z,5.40
2022-08-30T09:51:19.122Z,6.32
2022-08-30T09:54:25.555Z,5.93
2022-08-30T09:57:12.675Z,5.88
2022-08-30T10:00:09.554Z,5.70
2022-08-30T10:02:47.575Z,4.57
2022-08-30T10:05:35.086Z,5.05
2022-08-30T10:08:39.797Z,5.30
2022-08-30T10:11:38.969Z,5.45
2022-08-30T10:14:41.084Z,5.28
2022-08-30T10:17:43.044Z,5.07
2022-08-30T10:20:39.204Z,7.47
2022-08-30T10:23:20.536Z,15.30
2022-08-30T10:26:07.956Z,6.43
2022-08-30T10:28:59.645Z,5.15
2022-08-30T10:31:44.086Z,4.87
2022-08-30T10:34:44.622Z,5.78
2022-08-30T10:37:20.402Z,5.90
2022-08-30T10:39:56.404Z,5.70
2022-08-30T10:42:34.621Z,6.00
2022-08-30T10:45:15.567Z,5.10
2022-08-30T10:47:55.542Z,7.15
2022-08-30T10:50:29.647Z,6.85
2022-08-30T10:53:16.662Z,7.38
2022-08-30T10:56:11.321Z,6.90
2022-08-30T10:58:44.178Z,5.90
2022-08-30T11:01:30.942Z,6.03
2022-08-30T11:04:45.662Z,7.15
2022-08-30T11:07:28.202Z,6.47
2022-08-30T11:10:26.891Z,6.78
2022-08-30T11:12:58.152Z,8.23
2022-08-30T11:15:35.177Z,7.40
2022-08-30T11:18:11.005Z,7.82
2022-08-30T11:20:43.108Z,5.97
2022-08-30T11:23:20.435Z,8.27
2022-08-30T11:25:57.535Z,6.40
2022-08-30T11:28:38.984Z,6.07
2022-08-30T11:31:09.016Z,6.35
2022-08-30T11:33:57.603Z,5.95
2022-08-30T11:36:37.920Z,5.63
2022-08-30T11:39:33.789Z,8.23
2022-08-30T11:42:29.309Z,9.10
2022-08-30T11:45:25.173Z,7.38
2022-08-30T11:48:04.570Z,8.02
2022-08-30T11:50:59.647Z,7.03
2022-08-30T11:53:36.352Z,6.60
2022-08-30T11:56:28.992Z,8.02
2022-08-30T11:59:32.041Z,8.07
2022-08-30T12:02:00.847Z,7.20
2022-08-30T12:04:47.841Z,9.65
2022-08-30T12:07:57.566Z,7.63
2022-08-30T12:10:44.052Z,7.80
2022-08-30T12:13:35.052Z,9.68
2022-08-30T12:16:21.187Z,8.37
2022-08-30T12:19:00.931Z,8.02
2022-08-30T12:21:44.955Z,8.25
2022-08-30T12:24:27.722Z,6.93
2022-08-30T12:26:56.148Z,8.85
2022-08-30T12:29:28.255Z,7.80
2022-08-30T12:32:16.569Z,8.27
2022-08-30T12:34:45.001Z,8.27
2022-08-30T12:37:22.905Z,6.82
2022-08-30T12:40:10.474Z,7.57
2022-08-30T12:42:50.661Z,7.22
2022-08-30T12:45:21.763Z,7.43
2022-08-30T12:47:52.330Z,7.25
2022-08-30T12:50:24.374Z,7.03
2022-08-30T12:53:10.426Z,7.93
2022-08-30T12:56:13.336Z,7.43
2022-08-30T12:58:46.635Z,9.82
2022-08-30T13:01:17.313Z,8.88
2022-08-30T13:04:00.649Z,7.07
2022-08-30T13:06:55.365Z,7.32
2022-08-30T13:09:44.447Z,7.18
2022-08-30T13:12:26.468Z,11.02
2022-08-30T13:15:15.104Z,7.55
2022-08-30T13:17:43.887Z,6.38
2022-08-30T13:20:17.858Z,19.42
2022-08-30T13:23:09.252Z,17.20
2022-08-30T13:25:40.199Z,8.43
2022-08-30T13:28:08.992Z,9.40
2022-08-30T13:32:35.963Z,7.68
2022-08-30T13:35:08.049Z,11.00
2022-08-30T13:37:49.610Z,16.17
2022-08-30T13:40:21.328Z,10.77
2022-08-30T13:42:50.445Z,7.35
2022-08-30T13:48:08.998Z,6.47
2022-08-30T13:50:37.171Z,8.05
2022-08-30T13:53:05.651Z,7.50
2022-08-30T13:55:35.454Z,4.85
2022-08-30T13:58:03.734Z,6.30
2022-08-30T14:00:37.559Z,7.30
2022-08-30T14:07:28.221Z,10.38
2022-08-30T14:10:30.554Z,7.20
2022-08-30T14:12:53.666Z,6.90
2022-08-30T14:15:22.389Z,6.88
2022-08-30T14:17:50.634Z,10.52
2022-08-30T14:20:19.603Z,8.38
2022-08-30T14:22:47.990Z,6.65
2022-08-30T14:25:17.177Z,5.75
2022-08-30T14:27:45.422Z,7.05
2022-08-30T14:30:15.798Z,7.07
2022-08-30T14:32:46.185Z,5.90
2022-08-30T14:35:16.085Z,5.72
2022-08-30T14:37:45.701Z,6.65
2022-08-30T14:40:14.974Z,5.13
2022-08-30T14:42:43.528Z,5.20
2022-08-30T14:45:13.084Z,6.00
2022-08-30T14:47:41.396Z,6.28
2022-08-30T14:50:10.298Z,5.38
2022-08-30T14:52:38.862Z,5.63
2022-08-30T14:55:10.556Z,5.90
2022-08-30T14:57:39.432Z,6.50
2022-08-30T15:00:10.985Z,5.50
2022-08-30T15:13:31.757Z,6.05
2022-08-30T15:16:00.040Z,6.65
2022-08-30T15:18:28.565Z,6.97
2022-08-30T15:20:58.148Z,6.20
2022-08-30T15:23:26.409Z,5.15
2022-08-30T15:25:54.793Z,6.72
2022-08-30T15:28:23.105Z,6.55
2022-08-30T15:30:51.745Z,6.72
2022-08-30T15:33:20.011Z,6.38
2022-08-30T15:35:48.321Z,8.27
2022-08-30T15:38:16.993Z,6.80
2022-08-30T15:40:49.658Z,5.88
2022-08-30T15:43:18.377Z,6.22
2022-08-30T15:45:46.901Z,4.60
2022-08-30T15:48:15.114Z,7.28
2022-08-30T15:50:43.458Z,7.03
2022-08-30T15:53:12.095Z,7.65
2022-08-30T15:55:40.409Z,9.82
2022-08-30T15:58:08.805Z,5.25
2022-08-30T16:00:38.191Z,7.72
2022-08-30T16:03:12.670Z,7.65
2022-08-30T16:05:40.910Z,7.35
2022-08-30T16:08:09.295Z,6.43
2022-08-30T16:10:37.475Z,6.70
2022-08-30T16:13:06.094Z,7.10
2022-08-30T16:15:35.440Z,5.85
2022-08-30T16:18:03.578Z,8.25
2022-08-30T16:20:32.161Z,6.55
2022-08-30T16:23:00.438Z,5.82
2022-08-30T16:25:40.762Z,6.70
2022-08-30T16:28:09.725Z,6.03
2022-08-30T16:30:38.158Z,5.53
2022-08-30T16:33:06.375Z,7.75
2022-08-30T16:35:34.699Z,6.22
2022-08-30T16:38:03.440Z,7.07
2022-08-30T16:40:31.933Z,6.50
2022-08-30T16:43:00.411Z,5.88
2022-08-30T16:45:32.958Z,6.20
2022-08-30T16:48:03.185Z,7.25
2022-08-30T16:50:31.706Z,6.65
2022-08-30T16:52:59.989Z,6.75
2022-08-30T16:55:28.700Z,8.25
2022-08-30T16:57:57.102Z,7.57
2022-08-30T17:00:25.456Z,8.15
2022-08-30T17:02:56.510Z,7.75
2022-08-30T17:05:25.649Z,6.88
2022-08-30T17:07:54.216Z,9.10
2022-08-30T17:10:26.246Z,7.97
2022-08-30T17:12:59.785Z,5.18
2022-08-30T17:15:28.146Z,6.65
2022-08-30T17:17:56.984Z,9.82
2022-08-30T17:20:25.818Z,8.90
2022-08-30T17:22:54.159Z,7.90
2022-08-30T17:25:22.353Z,10.48
2022-08-30T17:27:50.671Z,9.10
2022-08-30T17:30:19.099Z,9.05
2022-08-30T17:32:47.282Z,8.82
2022-08-30T17:35:17.813Z,9.18
2022-08-30T17:37:46.006Z,10.13
2022-08-30T17:40:14.904Z,7.95
2022-08-30T17:42:43.648Z,7.97
2022-08-30T17:46:43.799Z,9.07
2022-08-30T17:49:12.098Z,7.00
2022-08-30T17:51:41.323Z,11.75
2022-08-30T17:54:11.600Z,9.63
2022-08-30T17:56:41.429Z,8.60
2022-08-30T17:59:12.619Z,7.95
2022-08-30T18:01:42.161Z,8.98
2022-08-30T18:04:12.211Z,7.35
2022-08-30T18:06:40.902Z,8.02
2022-08-30T18:09:11.631Z,6.13
2022-08-30T18:11:41.893Z,5.88
2022-08-30T18:14:11.399Z,8.45
2022-08-30T18:16:53.480Z,7.70
2022-08-30T18:19:27.022Z,9.45
2022-08-30T18:21:56.230Z,7.60
2022-08-30T18:24:25.227Z,6.88
2022-08-30T18:26:53.630Z,7.38
2022-08-30T18:29:29.539Z,7.38
2022-08-30T18:32:01.545Z,9.23
2022-08-30T18:34:31.668Z,8.23
2022-08-30T18:37:00.036Z,9.40
2022-08-30T18:39:34.595Z,8.07
2022-08-30T18:42:06.396Z,8.02
2022-08-30T18:44:35.312Z,8.15
2022-08-30T18:47:05.871Z,10.02
2022-08-30T18:49:36.676Z,8.50
2022-08-30T18:52:07.830Z,7.25
2022-08-30T18:54:44.759Z,8.45
2022-08-30T18:57:17.730Z,8.02
2022-08-30T18:59:45.843Z,9.02
2022-08-30T19:02:16.245Z,7.10
2022-08-30T19:04:46.272Z,10.32
2022-08-30T19:07:16.203Z,8.13
2022-08-30T19:09:45.213Z,9.30
2022-08-30T19:12:14.281Z,7.30
2022-08-30T19:14:42.612Z,8.82
2022-08-30T19:17:11.625Z,28.80
2022-08-30T19:19:48.411Z,13.20
2022-08-30T19:22:27.405Z,11.85
2022-08-30T19:24:58.717Z,9.90
2022-08-30T19:27:38.419Z,10.25
2022-08-30T19:30:17.407Z,10.00
2022-08-30T19:32:49.363Z,7.80
2022-08-30T19:35:19.855Z,9.10
2022-08-30T19:37:48.185Z,9.23
2022-08-30T19:40:18.688Z,9.73
2022-08-30T19:42:47.924Z,8.38
2022-08-30T19:45:17.794Z,10.90
2022-08-30T19:47:47.717Z,9.30
2022-08-30T19:50:16.684Z,7.55
2022-08-30T19:55:33.746Z,8.20
2022-08-30T19:58:02.053Z,8.10
2022-08-30T20:00:31.187Z,10.55
2022-08-30T20:03:01.576Z,9.18
2022-08-30T20:05:32.151Z,8.23
2022-08-30T20:08:00.781Z,7.15
2022-08-30T20:10:29.540Z,9.15
2022-08-30T20:12:58.039Z,9.13
2022-08-30T20:15:26.499Z,7.25
2022-08-30T20:18:14.057Z,8.13
2022-08-30T20:20:49.619Z,8.25
2022-08-30T20:23:21.619Z,7.57
2022-08-30T20:25:53.541Z,7.75
2022-08-30T20:28:22.466Z,6.93
2022-08-30T20:30:51.576Z,7.72
2022-08-30T20:33:21.217Z,7.95
2022-08-30T20:35:50.799Z,7.95
2022-08-30T20:38:21.029Z,7.38
2022-08-30T20:40:54.115Z,8.50
2022-08-30T20:43:25.309Z,8.43
2022-08-30T20:45:54.740Z,9.90
2022-08-30T20:48:24.330Z,7.68
2022-08-30T20:50:53.763Z,8.10
2022-08-30T20:53:22.177Z,7.03
2022-08-30T20:55:50.396Z,7.03
2022-08-30T20:58:18.916Z,7.70
2022-08-30T21:00:54.427Z,8.65
2022-08-30T21:03:27.403Z,8.40
2022-08-30T21:05:57.121Z,9.13
2022-08-30T21:08:25.857Z,8.68
2022-08-30T21:10:54.756Z,7.22
2022-08-30T21:13:23.832Z,10.23
2022-08-30T21:15:54.558Z,6.72
2022-08-30T21:18:24.172Z,7.07
2022-08-30T21:20:52.724Z,8.13
2022-08-30T21:23:20.997Z,7.22
2022-08-30T21:25:49.749Z,7.97
2022-08-30T21:28:18.910Z,9.50
2022-08-30T21:30:47.499Z,8.88
2022-08-30T21:33:15.943Z,8.20
2022-08-30T21:35:44.307Z,7.90
2022-08-30T21:38:12.695Z,8.02
2022-08-30T21:40:41.390Z,7.75
2022-08-30T21:43:10.120Z,7.22
2022-08-30T21:45:45.881Z,7.10
2022-08-30T21:48:14.909Z,6.72
2022-08-30T21:50:43.964Z,6.60
2022-08-30T21:53:15.406Z,6.40
2022-08-30T21:55:45.398Z,7.13
2022-08-30T21:58:16.625Z,7.13
2022-08-30T22:00:44.937Z,6.78
2022-08-30T22:03:13.382Z,6.80
2022-08-30T22:05:41.857Z,7.38
2022-08-30T22:08:10.266Z,7.35
2022-08-30T22:10:38.575Z,8.40
2022-08-30T22:13:06.775Z,7.90
2022-08-30T22:15:35.322Z,11.35
2022-08-30T22:18:06.527Z,20.10
2022-08-30T22:20:35.075Z,16.85
2022-08-30T22:23:04.106Z,13.00
2022-08-30T22:25:32.341Z,13.02
2022-08-30T22:28:00.764Z,12.38
2022-08-30T22:30:32.787Z,12.57
2022-08-30T22:33:01.222Z,11.45
2022-08-30T22:35:29.708Z,10.45
2022-08-30T22:37:58.025Z,9.52
2022-08-30T22:40:26.453Z,7.63
2022-08-30T22:42:54.757Z,7.05
2022-08-30T22:45:23.005Z,6.38
2022-08-30T22:47:51.460Z,7.97
2022-08-30T22:50:20.041Z,7.07
2022-08-30T22:52:49.286Z,7.30
2022-08-30T22:55:17.575Z,8.35
2022-08-30T22:57:46.071Z,7.75
2022-08-30T23:00:17.069Z,8.00
2022-08-30T23:05:38.645Z,7.43
2022-08-30T23:08:07.301Z,7.35
2022-08-30T23:10:35.658Z,7.65
2022-08-30T23:13:04.575Z,6.28
2022-08-30T23:15:33.201Z,7.38
2022-08-30T23:18:01.370Z,6.90
2022-08-30T23:20:29.693Z,7.25
2022-08-30T23:23:00.857Z,7.97
2022-08-30T23:25:32.149Z,7.70
2022-08-30T23:28:10.203Z,8.57
2022-08-30T23:30:38.422Z,8.60
2022-08-30T23:33:07.508Z,8.30
2022-08-30T23:35:37.195Z,11.07
2022-08-30T23:38:06.781Z,10.95
2022-08-30T23:40:35.147Z,9.52
2022-08-30T23:43:03.601Z,10.30
2022-08-30T23:45:31.937Z,9.15
2022-08-30T23:48:00.363Z,9.13
2022-08-30T23:50:28.588Z,10.70
2022-08-30T23:52:56.920Z,10.52
2022-08-30T23:55:25.359Z,11.00
2022-08-30T23:57:53.894Z,11.63
